createdAt,value
2023-12-10T00:00:12.997Z,4.89
2023-12-10T00:01:13.073Z,4.91
2023-12-10T00:02:12.986Z,4.88
2023-12-10T00:03:13.026Z,4.86
2023-12-10T00:04:12.972Z,4.86
2023-12-10T00:05:12.874Z,4.88
2023-12-10T00:06:14.581Z,4.89
2023-12-10T00:07:12.861Z,4.88
2023-12-10T00:08:12.857Z,4.88
2023-12-10T00:09:12.831Z,4.91
2023-12-10T00:10:12.828Z,4.92
2023-12-10T00:11:12.840Z,4.91
2023-12-10T00:12:12.803Z,4.94
2023-12-10T00:13:12.811Z,4.92
2023-12-10T00:14:12.813Z,4.95
2023-12-10T00:15:12.828Z,4.95
2023-12-10T00:16:12.728Z,4.98
2023-12-10T00:17:12.700Z,5.02
2023-12-10T00:18:12.817Z,4.99
2023-12-10T00:19:12.849Z,5.01
2023-12-10T00:20:12.675Z,5.01
2023-12-10T00:21:12.671Z,4.99
2023-12-10T00:22:12.655Z,5.01
2023-12-10T00:23:12.636Z,5.01
2023-12-10T00:24:12.677Z,4.99
2023-12-10T00:25:12.615Z,5.05
2023-12-10T00:26:12.585Z,5.04
2023-12-10T00:27:12.694Z,5.04
2023-12-10T00:28:12.557Z,5.07
2023-12-10T00:29:12.841Z,5.07
2023-12-10T00:30:12.570Z,5.07
2023-12-10T00:31:12.538Z,5.10
2023-12-10T00:32:12.508Z,5.09
2023-12-10T00:33:12.596Z,5.07
2023-12-10T00:34:12.630Z,5.09
2023-12-10T00:35:12.481Z,5.07
2023-12-10T00:36:12.488Z,5.02
2023-12-10T00:37:12.535Z,5.05
2023-12-10T00:38:12.431Z,5.07
2023-12-10T00:39:12.450Z,5.01
2023-12-10T00:40:12.424Z,5.04
2023-12-10T00:41:12.472Z,5.01
2023-12-10T00:42:12.448Z,5.01
2023-12-10T00:43:12.372Z,5.02
2023-12-10T00:44:12.386Z,4.99
2023-12-10T00:45:12.382Z,5.01
2023-12-10T00:46:12.346Z,4.99
2023-12-10T00:47:12.322Z,5.02
2023-12-10T00:48:12.392Z,4.99
2023-12-10T00:49:12.392Z,5.02
2023-12-10T00:50:12.291Z,5.04
2023-12-10T00:51:12.321Z,5.04
2023-12-10T00:52:12.286Z,5.02
2023-12-10T00:53:12.247Z,5.05
2023-12-10T00:54:13.531Z,5.05
2023-12-10T00:55:12.219Z,5.07
2023-12-10T00:56:12.197Z,5.09
2023-12-10T00:57:12.234Z,5.09
2023-12-10T00:58:12.200Z,5.12
2023-12-10T00:59:12.171Z,5.10
2023-12-10T01:00:13.800Z,5.10
2023-12-10T01:01:12.250Z,5.12
2023-12-10T01:02:12.106Z,5.13
2023-12-10T01:03:12.234Z,5.14
2023-12-10T01:04:12.259Z,5.13
2023-12-10T01:05:12.130Z,5.17
2023-12-10T01:06:12.123Z,5.14
2023-12-10T01:07:12.073Z,5.13
2023-12-10T01:08:12.082Z,5.16
2023-12-10T01:09:12.114Z,5.16
2023-12-10T01:10:12.043Z,5.16
2023-12-10T01:11:12.029Z,5.16
2023-12-10T01:12:12.029Z,5.13
2023-12-10T01:13:12.020Z,5.10
2023-12-10T01:14:11.953Z,5.09
2023-12-10T01:15:11.990Z,5.10
2023-12-10T01:16:11.926Z,5.04
2023-12-10T01:17:11.991Z,4.99
2023-12-10T01:18:12.111Z,4.96
2023-12-10T01:19:12.027Z,4.98
2023-12-10T01:20:11.909Z,4.95
2023-12-10T01:21:11.936Z,4.99
2023-12-10T01:22:11.864Z,4.99
2023-12-10T01:23:11.919Z,4.95
2023-12-10T01:24:11.913Z,4.89
2023-12-10T01:25:11.860Z,4.91
2023-12-10T01:26:11.864Z,4.88
2023-12-10T01:27:11.948Z,4.84
2023-12-10T01:28:11.783Z,4.84
2023-12-10T01:29:11.819Z,4.84
2023-12-10T01:30:12.747Z,4.86
2023-12-10T01:31:11.768Z,4.86
2023-12-10T01:32:11.780Z,4.92
2023-12-10T01:33:12.001Z,4.94
2023-12-10T01:34:11.897Z,4.94
2023-12-10T01:35:11.847Z,4.91
2023-12-10T01:36:11.757Z,4.94
2023-12-10T01:37:11.678Z,4.89
2023-12-10T01:38:11.647Z,4.84
2023-12-10T01:39:11.718Z,4.80
2023-12-10T01:40:11.679Z,4.76
2023-12-10T01:41:13.574Z,4.76
2023-12-10T01:42:11.614Z,4.72
2023-12-10T01:43:11.619Z,4.69
2023-12-10T01:44:11.621Z,4.69
2023-12-10T01:45:11.588Z,4.62
2023-12-10T01:46:11.577Z,4.59
2023-12-10T01:47:11.613Z,4.59
2023-12-10T01:48:11.679Z,4.61
2023-12-10T01:49:11.588Z,4.61
2023-12-10T01:50:11.509Z,4.61
2023-12-10T01:51:11.533Z,4.62
2023-12-10T01:52:11.470Z,4.62
2023-12-10T01:53:11.459Z,4.67
2023-12-10T01:54:11.469Z,4.65
2023-12-10T01:55:11.452Z,4.67
2023-12-10T01:56:12.130Z,4.61
2023-12-10T01:57:11.430Z,4.65
2023-12-10T01:58:11.381Z,4.62
2023-12-10T01:59:11.382Z,4.64
2023-12-10T02:00:11.482Z,4.61
2023-12-10T02:01:11.450Z,4.64
2023-12-10T02:02:11.357Z,4.64
2023-12-10T02:03:11.351Z,4.62
2023-12-10T02:04:11.442Z,4.64
2023-12-10T02:05:11.512Z,4.64
2023-12-10T02:06:11.357Z,4.64
2023-12-10T02:07:11.285Z,4.67
2023-12-10T02:08:11.312Z,4.61
2023-12-10T02:09:11.295Z,4.59
2023-12-10T02:10:11.227Z,4.58
2023-12-10T02:11:11.235Z,4.54
2023-12-10T02:12:11.273Z,4.54
2023-12-10T02:13:11.208Z,4.58
2023-12-10T02:14:11.239Z,4.54
2023-12-10T02:15:11.186Z,4.57
2023-12-10T02:16:11.166Z,4.52
2023-12-10T02:17:11.157Z,4.50
2023-12-10T02:18:11.289Z,4.51
2023-12-10T02:19:11.216Z,4.47
2023-12-10T02:20:11.130Z,4.46
2023-12-10T02:21:11.144Z,4.46
2023-12-10T02:22:11.086Z,4.47
2023-12-10T02:23:11.088Z,4.47
2023-12-10T02:24:11.110Z,4.47
2023-12-10T02:25:11.043Z,4.51
2023-12-10T02:26:11.018Z,4.46
2023-12-10T02:27:11.092Z,4.47
2023-12-10T02:28:11.004Z,4.50
2023-12-10T02:29:11.052Z,4.50
2023-12-10T02:30:11.074Z,4.47
2023-12-10T02:31:10.979Z,4.46
2023-12-10T02:32:10.971Z,4.46
2023-12-10T02:33:11.140Z,4.46
2023-12-10T02:34:11.096Z,4.40
2023-12-10T02:35:10.921Z,4.43
2023-12-10T02:36:10.958Z,4.43
2023-12-10T02:37:10.926Z,4.42
2023-12-10T02:38:10.876Z,4.44
2023-12-10T02:39:10.983Z,4.42
2023-12-10T02:40:10.858Z,4.43
2023-12-10T02:41:10.856Z,4.43
2023-12-10T02:42:10.855Z,4.44
2023-12-10T02:43:10.842Z,4.46
2023-12-10T02:44:10.802Z,4.50
2023-12-10T02:45:10.919Z,4.50
2023-12-10T02:46:10.801Z,4.51
2023-12-10T02:47:10.828Z,4.51
2023-12-10T02:48:11.039Z,4.55
2023-12-10T02:49:10.897Z,4.51
2023-12-10T02:50:10.738Z,4.55
2023-12-10T02:51:10.773Z,4.55
2023-12-10T02:52:10.707Z,4.54
2023-12-10T02:53:10.710Z,4.52
2023-12-10T02:54:10.847Z,4.54
2023-12-10T02:55:10.951Z,4.57
2023-12-10T02:56:10.648Z,4.62
2023-12-10T02:57:10.834Z,4.65
2023-12-10T02:58:10.606Z,4.72
2023-12-10T02:59:10.643Z,4.77
2023-12-10T03:00:10.598Z,4.84
2023-12-10T03:01:10.877Z,4.83
2023-12-10T03:02:10.615Z,4.84
2023-12-10T03:03:10.627Z,4.76
2023-12-10T03:04:10.651Z,4.76
2023-12-10T03:05:10.662Z,4.76
2023-12-10T03:06:10.599Z,4.77
2023-12-10T03:07:10.628Z,4.72
2023-12-10T03:08:10.509Z,4.70
2023-12-10T03:09:10.584Z,4.67
2023-12-10T03:10:10.605Z,4.62
2023-12-10T03:11:10.562Z,4.58
2023-12-10T03:12:10.447Z,4.58
2023-12-10T03:13:10.629Z,4.46
2023-12-10T03:14:13.562Z,4.44
2023-12-10T03:15:10.408Z,4.43
2023-12-10T03:16:10.406Z,4.40
2023-12-10T03:17:10.399Z,4.37
2023-12-10T03:18:10.551Z,4.39
2023-12-10T03:19:10.586Z,4.33
2023-12-10T03:20:10.442Z,4.33
2023-12-10T03:21:10.448Z,4.28
2023-12-10T03:22:10.553Z,4.28
2023-12-10T03:23:10.511Z,4.24
2023-12-10T03:24:10.496Z,4.24
2023-12-10T03:25:10.472Z,4.21
2023-12-10T03:26:10.270Z,4.19
2023-12-10T03:27:10.259Z,4.18
2023-12-10T03:28:10.385Z,4.15
2023-12-10T03:29:10.246Z,4.12
2023-12-10T03:30:10.198Z,4.08
2023-12-10T03:31:10.225Z,4.10
2023-12-10T03:32:10.155Z,4.06
2023-12-10T03:33:10.278Z,4.03
2023-12-10T03:34:10.224Z,4.03
2023-12-10T03:35:10.133Z,4.03
2023-12-10T03:36:10.117Z,4.01
2023-12-10T03:37:10.119Z,3.97
2023-12-10T03:38:10.102Z,3.98
2023-12-10T03:39:10.096Z,3.97
2023-12-10T03:40:10.103Z,3.94
2023-12-10T03:41:10.069Z,3.86
2023-12-10T03:42:10.057Z,3.89
2023-12-10T03:43:10.078Z,3.88
2023-12-10T03:44:10.017Z,3.80
2023-12-10T03:45:10.021Z,3.78
2023-12-10T03:46:10.001Z,3.76
2023-12-10T03:47:10.114Z,3.75
2023-12-10T03:48:10.128Z,3.68
2023-12-10T03:49:10.269Z,3.70
2023-12-10T03:50:10.163Z,3.67
2023-12-10T03:51:10.328Z,3.68
2023-12-10T03:52:10.497Z,3.64
2023-12-10T03:53:10.313Z,3.61
2023-12-10T03:54:10.288Z,3.62
2023-12-10T03:55:10.122Z,3.62
2023-12-10T03:56:10.206Z,3.64
2023-12-10T03:57:09.867Z,3.64
2023-12-10T03:58:09.914Z,3.67
2023-12-10T03:59:09.860Z,3.68
2023-12-10T04:00:09.810Z,3.71
2023-12-10T04:01:09.988Z,3.72
2023-12-10T04:02:09.771Z,3.75
2023-12-10T04:03:09.858Z,3.78
2023-12-10T04:04:10.231Z,3.80
2023-12-10T04:05:09.769Z,3.86
2023-12-10T04:06:09.727Z,3.86
2023-12-10T04:07:09.725Z,3.88
2023-12-10T04:08:09.711Z,3.89
2023-12-10T04:09:09.737Z,3.90
2023-12-10T04:10:09.727Z,3.94
2023-12-10T04:11:09.738Z,3.90
2023-12-10T04:12:09.681Z,3.89
2023-12-10T04:13:09.653Z,3.90
2023-12-10T04:14:09.670Z,3.86
2023-12-10T04:15:09.657Z,3.86
2023-12-10T04:16:09.636Z,3.88
2023-12-10T04:17:09.618Z,3.86
2023-12-10T04:18:09.687Z,3.89
2023-12-10T04:19:09.794Z,3.86
2023-12-10T04:20:09.628Z,3.86
2023-12-10T04:21:09.552Z,3.88
2023-12-10T04:22:09.644Z,3.89
2023-12-10T04:23:09.596Z,3.90
2023-12-10T04:24:09.554Z,3.88
2023-12-10T04:25:09.558Z,3.83
2023-12-10T04:26:09.549Z,3.85
2023-12-10T04:27:09.526Z,3.85
2023-12-10T04:28:09.486Z,3.85
2023-12-10T04:29:09.615Z,3.80
2023-12-10T04:30:09.423Z,3.80
2023-12-10T04:31:09.491Z,3.76
2023-12-10T04:32:09.477Z,3.79
2023-12-10T04:33:09.510Z,3.82
2023-12-10T04:34:09.495Z,3.82
2023-12-10T04:35:09.444Z,3.86
2023-12-10T04:36:09.365Z,3.85
2023-12-10T04:37:09.338Z,3.89
2023-12-10T04:38:09.320Z,3.90
2023-12-10T04:39:09.340Z,3.92
2023-12-10T04:40:09.323Z,3.97
2023-12-10T04:41:09.299Z,4.01
2023-12-10T04:42:09.276Z,4.03
2023-12-10T04:43:09.256Z,4.04
2023-12-10T04:44:09.255Z,4.10
2023-12-10T04:45:09.264Z,4.08
2023-12-10T04:46:09.236Z,4.14
2023-12-10T04:47:09.189Z,4.15
2023-12-10T04:48:09.294Z,4.19
2023-12-10T04:49:09.301Z,4.24
2023-12-10T04:50:09.207Z,4.29
2023-12-10T04:51:09.178Z,4.29
2023-12-10T04:52:09.156Z,4.34
2023-12-10T04:53:09.128Z,4.39
2023-12-10T04:54:09.121Z,4.44
2023-12-10T04:55:09.118Z,4.50
2023-12-10T04:56:09.101Z,4.54
2023-12-10T04:57:09.083Z,4.58
2023-12-10T04:58:09.089Z,4.61
2023-12-10T04:59:09.041Z,4.62
2023-12-10T05:00:09.030Z,4.62
2023-12-10T05:01:09.081Z,4.61
2023-12-10T05:02:09.058Z,4.58
2023-12-10T05:03:09.070Z,4.58
2023-12-10T05:04:09.058Z,4.57
2023-12-10T05:05:08.951Z,4.51
2023-12-10T05:06:09.047Z,4.50
2023-12-10T05:07:08.938Z,4.44
2023-12-10T05:08:08.971Z,4.37
2023-12-10T05:09:09.059Z,4.34
2023-12-10T05:10:08.927Z,4.29
2023-12-10T05:11:08.899Z,4.26
2023-12-10T05:12:08.925Z,4.24
2023-12-10T05:13:08.897Z,4.21
2023-12-10T05:14:08.944Z,4.18
2023-12-10T05:15:08.844Z,4.15
2023-12-10T05:16:08.835Z,4.12
2023-12-10T05:17:08.875Z,4.07
2023-12-10T05:18:08.913Z,4.07
2023-12-10T05:19:08.945Z,4.03
2023-12-10T05:20:08.821Z,4.04
2023-12-10T05:21:08.795Z,4.01
2023-12-10T05:22:08.858Z,4.01
2023-12-10T05:23:08.746Z,4.01
2023-12-10T05:24:08.799Z,4.03
2023-12-10T05:25:08.700Z,4.01
2023-12-10T05:26:09.290Z,4.00
2023-12-10T05:27:08.690Z,4.01
2023-12-10T05:28:08.689Z,4.03
2023-12-10T05:29:08.661Z,4.03
2023-12-10T05:30:08.650Z,4.06
2023-12-10T05:31:08.706Z,4.03
2023-12-10T05:32:08.713Z,4.01
2023-12-10T05:33:08.694Z,4.03
2023-12-10T05:34:08.677Z,4.01
2023-12-10T05:35:08.597Z,3.97
2023-12-10T05:36:08.581Z,3.98
2023-12-10T05:37:08.545Z,3.97
2023-12-10T05:38:08.618Z,3.96
2023-12-10T05:39:08.576Z,3.89
2023-12-10T05:40:09.134Z,3.89
2023-12-10T05:41:08.525Z,3.85
2023-12-10T05:42:08.522Z,3.80
2023-12-10T05:43:08.555Z,3.75
2023-12-10T05:44:08.525Z,3.70
2023-12-10T05:45:08.590Z,3.68
2023-12-10T05:46:08.745Z,3.67
2023-12-10T05:47:08.417Z,3.62
2023-12-10T05:48:08.475Z,3.64
2023-12-10T05:49:08.536Z,3.60
2023-12-10T05:50:08.649Z,3.57
2023-12-10T05:51:08.456Z,3.58
2023-12-10T05:52:08.376Z,3.58
2023-12-10T05:53:08.381Z,3.57
2023-12-10T05:54:08.371Z,3.54
2023-12-10T05:55:08.433Z,3.53
2023-12-10T05:56:08.340Z,3.52
2023-12-10T05:57:08.359Z,3.52
2023-12-10T05:58:08.317Z,3.44
2023-12-10T05:59:08.278Z,3.46
2023-12-10T06:00:08.275Z,3.49
2023-12-10T06:01:08.323Z,3.49
2023-12-10T06:02:08.310Z,3.53
2023-12-10T06:03:08.228Z,3.50
2023-12-10T06:04:08.303Z,3.47
2023-12-10T06:05:11.539Z,3.52
2023-12-10T06:06:08.372Z,3.50
2023-12-10T06:07:08.236Z,3.49
2023-12-10T06:08:08.168Z,3.49
2023-12-10T06:09:08.186Z,3.49
2023-12-10T06:10:08.238Z,3.50
2023-12-10T06:11:08.129Z,3.50
2023-12-10T06:12:08.168Z,3.52
2023-12-10T06:13:08.101Z,3.57
2023-12-10T06:14:08.086Z,3.53
2023-12-10T06:15:08.096Z,3.54
2023-12-10T06:16:08.043Z,3.54
2023-12-10T06:17:08.048Z,3.57
2023-12-10T06:18:08.096Z,3.62
2023-12-10T06:19:08.121Z,3.62
2023-12-10T06:20:08.022Z,3.71
2023-12-10T06:21:07.987Z,3.75
2023-12-10T06:22:07.977Z,3.79
2023-12-10T06:23:07.961Z,3.83
2023-12-10T06:24:07.972Z,3.85
2023-12-10T06:25:07.990Z,3.94
2023-12-10T06:26:07.934Z,4.03
2023-12-10T06:27:07.920Z,4.08
2023-12-10T06:28:07.918Z,4.16
2023-12-10T06:29:07.878Z,4.26
2023-12-10T06:30:07.894Z,4.26
2023-12-10T06:31:07.882Z,4.37
2023-12-10T06:32:07.847Z,4.36
2023-12-10T06:33:07.931Z,4.36
2023-12-10T06:34:07.961Z,4.40
2023-12-10T06:35:07.798Z,4.40
2023-12-10T06:36:07.824Z,4.39
2023-12-10T06:37:07.791Z,4.34
2023-12-10T06:38:07.795Z,4.33
2023-12-10T06:39:07.774Z,4.29
2023-12-10T06:40:07.749Z,4.28
2023-12-10T06:41:07.760Z,4.25
2023-12-10T06:42:07.757Z,4.22
2023-12-10T06:43:07.837Z,4.19
2023-12-10T06:44:07.698Z,4.16
2023-12-10T06:45:07.699Z,4.15
2023-12-10T06:46:07.691Z,4.12
2023-12-10T06:47:07.651Z,4.06
2023-12-10T06:48:07.816Z,4.06
2023-12-10T06:49:07.720Z,4.06
2023-12-10T06:50:07.621Z,4.06
2023-12-10T06:51:07.625Z,4.07
2023-12-10T06:52:07.618Z,4.06
2023-12-10T06:53:07.597Z,4.01
2023-12-10T06:54:07.624Z,4.00
2023-12-10T06:55:07.580Z,4.03
2023-12-10T06:56:07.554Z,4.06
2023-12-10T06:57:07.531Z,4.06
2023-12-10T06:58:07.582Z,4.04
2023-12-10T06:59:07.517Z,4.08
2023-12-10T07:00:07.690Z,4.04
2023-12-10T07:01:07.561Z,4.07
2023-12-10T07:02:07.529Z,4.04
2023-12-10T07:03:07.506Z,4.04
2023-12-10T07:04:07.641Z,4.03
2023-12-10T07:05:07.467Z,4.01
2023-12-10T07:06:07.452Z,3.98
2023-12-10T07:07:07.455Z,3.94
2023-12-10T07:08:07.466Z,3.92
2023-12-10T07:09:07.380Z,3.89
2023-12-10T07:10:07.462Z,3.86
2023-12-10T07:11:07.414Z,3.83
2023-12-10T07:12:07.422Z,3.79
2023-12-10T07:13:07.328Z,3.75
2023-12-10T07:14:07.312Z,3.72
2023-12-10T07:15:07.335Z,3.71
2023-12-10T07:16:07.381Z,3.75
2023-12-10T07:17:07.316Z,3.70
2023-12-10T07:18:07.482Z,3.70
2023-12-10T07:19:07.422Z,3.67
2023-12-10T07:20:07.353Z,3.70
2023-12-10T07:21:07.267Z,3.67
2023-12-10T07:22:07.256Z,3.68
2023-12-10T07:23:07.229Z,3.65
2023-12-10T07:24:07.355Z,3.65
2023-12-10T07:25:07.196Z,3.65
2023-12-10T07:26:07.177Z,3.64
2023-12-10T07:27:07.151Z,3.65
2023-12-10T07:28:07.135Z,3.64
2023-12-10T07:29:07.124Z,3.64
2023-12-10T07:30:07.223Z,3.67
2023-12-10T07:31:07.098Z,3.67
2023-12-10T07:32:07.088Z,3.71
2023-12-10T07:33:07.173Z,3.71
2023-12-10T07:34:07.194Z,3.75
2023-12-10T07:35:07.088Z,3.76
2023-12-10T07:36:07.026Z,3.82
2023-12-10T07:37:07.059Z,3.85
2023-12-10T07:38:07.007Z,3.85
2023-12-10T07:39:07.006Z,3.88
2023-12-10T07:40:06.983Z,3.90
2023-12-10T07:41:07.055Z,3.94
2023-12-10T07:42:06.975Z,3.94
2023-12-10T07:43:07.062Z,4.00
2023-12-10T07:44:06.953Z,4.06
2023-12-10T07:45:06.895Z,4.10
2023-12-10T07:46:06.977Z,4.18
2023-12-10T07:47:09.374Z,4.26
2023-12-10T07:48:06.949Z,4.33
2023-12-10T07:49:06.936Z,4.39
2023-12-10T07:50:06.884Z,4.40
2023-12-10T07:51:06.852Z,4.42
2023-12-10T07:52:06.825Z,4.46
2023-12-10T07:53:06.842Z,4.44
2023-12-10T07:54:06.805Z,4.44
2023-12-10T07:55:06.789Z,4.52
2023-12-10T07:56:06.808Z,4.58
2023-12-10T07:57:06.775Z,4.70
2023-12-10T07:58:06.888Z,4.77
2023-12-10T07:59:06.764Z,4.79
2023-12-10T08:00:06.943Z,4.83
2023-12-10T08:01:06.748Z,4.88
2023-12-10T08:02:06.743Z,4.89
2023-12-10T08:03:06.726Z,4.91
2023-12-10T08:04:06.737Z,4.98
2023-12-10T08:05:06.724Z,5.01
2023-12-10T08:06:06.679Z,5.01
2023-12-10T08:07:06.636Z,5.05
2023-12-10T08:08:06.632Z,5.07
2023-12-10T08:09:06.592Z,5.14
2023-12-10T08:10:06.655Z,5.19
2023-12-10T08:11:06.606Z,5.22
2023-12-10T08:12:06.560Z,5.25
2023-12-10T08:13:06.567Z,5.27
2023-12-10T08:14:06.561Z,5.28
2023-12-10T08:15:06.583Z,5.27
2023-12-10T08:16:06.556Z,5.30
2023-12-10T08:17:06.609Z,5.28
2023-12-10T08:18:06.646Z,5.25
2023-12-10T08:19:06.613Z,5.22
2023-12-10T08:20:06.511Z,5.22
2023-12-10T08:21:06.470Z,5.20
2023-12-10T08:22:06.489Z,5.16
2023-12-10T08:23:06.424Z,5.16
2023-12-10T08:24:06.418Z,5.16
2023-12-10T08:25:06.431Z,5.13
2023-12-10T08:26:06.377Z,5.14
2023-12-10T08:27:06.416Z,5.14
2023-12-10T08:28:06.467Z,5.14
2023-12-10T08:29:06.341Z,5.14
2023-12-10T08:30:06.330Z,5.20
2023-12-10T08:31:06.312Z,5.23
2023-12-10T08:32:06.301Z,5.25
2023-12-10T08:33:06.349Z,5.30
2023-12-10T08:34:06.344Z,5.31
2023-12-10T08:35:06.318Z,5.31
2023-12-10T08:36:06.256Z,5.27
2023-12-10T08:37:06.225Z,5.20
2023-12-10T08:38:06.234Z,5.13
2023-12-10T08:39:06.203Z,5.12
2023-12-10T08:40:06.235Z,5.04
2023-12-10T08:41:06.214Z,4.99
2023-12-10T08:42:06.174Z,4.94
2023-12-10T08:43:06.197Z,4.91
2023-12-10T08:44:06.171Z,4.89
2023-12-10T08:45:06.177Z,4.86
2023-12-10T08:46:06.213Z,4.88
2023-12-10T08:47:06.093Z,4.89
2023-12-10T08:48:06.134Z,4.89
2023-12-10T08:49:06.317Z,4.94
2023-12-10T08:50:06.085Z,4.95
2023-12-10T08:51:06.050Z,4.94
2023-12-10T08:52:06.061Z,4.98
2023-12-10T08:53:06.074Z,4.99
2023-12-10T08:54:06.046Z,5.04
2023-12-10T08:55:06.123Z,5.04
2023-12-10T08:56:06.007Z,5.10
2023-12-10T08:57:05.983Z,5.17
2023-12-10T08:58:05.959Z,5.30
2023-12-10T08:59:05.976Z,5.40
2023-12-10T09:00:06.047Z,5.43
2023-12-10T09:01:06.033Z,5.49
2023-12-10T09:02:05.922Z,5.57
2023-12-10T09:03:05.979Z,5.59
2023-12-10T09:04:06.067Z,5.68
2023-12-10T09:05:06.011Z,5.70
2023-12-10T09:06:05.871Z,5.73
2023-12-10T09:07:05.877Z,5.71
2023-12-10T09:08:05.834Z,5.68
2023-12-10T09:09:05.811Z,5.68
2023-12-10T09:10:11.537Z,5.67
2023-12-10T09:11:05.942Z,5.67
2023-12-10T09:12:05.819Z,5.71
2023-12-10T09:13:05.881Z,5.73
2023-12-10T09:14:05.804Z,5.75
2023-12-10T09:15:05.794Z,5.86
2023-12-10T09:16:05.754Z,5.93
2023-12-10T09:17:05.722Z,6.09
2023-12-10T09:18:05.847Z,6.18
2023-12-10T09:19:05.928Z,6.30
2023-12-10T09:20:05.677Z,6.40
2023-12-10T09:21:05.709Z,6.43
2023-12-10T09:22:05.655Z,6.40
2023-12-10T09:23:05.656Z,6.36
2023-12-10T09:24:05.653Z,6.28
2023-12-10T09:25:05.669Z,6.18
2023-12-10T09:26:05.601Z,6.09
2023-12-10T09:27:05.619Z,6.00
2023-12-10T09:28:07.774Z,5.92
2023-12-10T09:29:05.553Z,5.82
2023-12-10T09:30:05.584Z,5.70
2023-12-10T09:31:05.545Z,5.60
2023-12-10T09:32:05.585Z,5.46
2023-12-10T09:33:05.544Z,5.38
2023-12-10T09:34:05.557Z,5.31
2023-12-10T09:35:05.607Z,5.23
2023-12-10T09:36:05.469Z,5.22
2023-12-10T09:37:05.461Z,5.27
2023-12-10T09:38:05.453Z,5.30
2023-12-10T09:39:05.509Z,5.35
2023-12-10T09:40:05.505Z,5.41
2023-12-10T09:41:05.457Z,5.48
2023-12-10T09:42:05.394Z,5.49
2023-12-10T09:43:05.424Z,5.53
2023-12-10T09:44:05.392Z,5.57
2023-12-10T09:45:05.364Z,5.66
2023-12-10T09:46:05.393Z,5.71
2023-12-10T09:47:05.327Z,5.85
2023-12-10T09:48:05.466Z,5.98
2023-12-10T09:49:05.567Z,6.10
2023-12-10T09:50:05.289Z,6.21
2023-12-10T09:51:05.282Z,6.40
2023-12-10T09:52:05.342Z,6.53
2023-12-10T09:53:05.258Z,6.68
2023-12-10T09:54:05.226Z,6.81
2023-12-10T09:55:05.390Z,6.95
2023-12-10T09:56:05.211Z,7.09
2023-12-10T09:57:05.222Z,7.26
2023-12-10T09:58:05.244Z,7.42
2023-12-10T09:59:05.173Z,7.58
2023-12-10T10:00:05.141Z,7.74
2023-12-10T10:01:05.213Z,7.82
2023-12-10T10:02:05.131Z,7.89
2023-12-10T10:03:05.199Z,7.93
2023-12-10T10:04:05.380Z,7.97
2023-12-10T10:05:05.146Z,7.94
2023-12-10T10:06:05.081Z,7.97
2023-12-10T10:07:05.112Z,7.97
2023-12-10T10:08:05.042Z,7.97
2023-12-10T10:09:05.035Z,7.97
2023-12-10T10:10:05.078Z,7.99
2023-12-10T10:11:05.020Z,8.04
2023-12-10T10:12:04.990Z,8.04
2023-12-10T10:13:05.275Z,8.10
2023-12-10T10:14:04.956Z,8.12
2023-12-10T10:15:04.961Z,8.18
2023-12-10T10:16:04.994Z,8.21
2023-12-10T10:17:04.935Z,8.26
2023-12-10T10:18:05.073Z,8.26
2023-12-10T10:19:05.678Z,8.25
2023-12-10T10:20:04.934Z,8.22
2023-12-10T10:21:04.911Z,8.21
2023-12-10T10:22:04.874Z,8.22
2023-12-10T10:23:04.881Z,8.17
2023-12-10T10:24:04.830Z,8.22
2023-12-10T10:25:05.088Z,8.26
2023-12-10T10:26:04.826Z,8.28
2023-12-10T10:27:04.823Z,8.29
2023-12-10T10:28:04.926Z,8.30
2023-12-10T10:29:04.791Z,8.30
2023-12-10T10:30:04.991Z,8.35
2023-12-10T10:31:04.845Z,8.36
2023-12-10T10:32:04.739Z,8.40
2023-12-10T10:33:04.829Z,8.45
2023-12-10T10:34:04.749Z,8.53
2023-12-10T10:35:04.700Z,8.57
2023-12-10T10:36:04.687Z,8.62
2023-12-10T10:37:04.750Z,8.69
2023-12-10T10:38:04.665Z,8.75
2023-12-10T10:39:04.692Z,8.87
2023-12-10T10:40:04.813Z,8.93
2023-12-10T10:41:04.648Z,9.04
2023-12-10T10:42:04.602Z,9.09
2023-12-10T10:43:04.653Z,9.23
2023-12-10T10:44:04.620Z,9.32
2023-12-10T10:45:04.608Z,9.42
2023-12-10T10:46:05.606Z,9.46
2023-12-10T10:47:04.550Z,9.53
2023-12-10T10:48:04.838Z,9.61
2023-12-10T10:49:04.652Z,9.68
2023-12-10T10:50:20.963Z,9.71
2023-12-10T10:51:04.524Z,9.76
2023-12-10T10:52:04.494Z,9.85
2023-12-10T10:53:04.486Z,9.96
2023-12-10T10:54:04.460Z,10.09
2023-12-10T10:55:04.529Z,10.19
2023-12-10T10:56:04.495Z,10.36
2023-12-10T10:57:04.503Z,10.51
2023-12-10T10:58:04.530Z,10.65
2023-12-10T10:59:04.412Z,10.80
2023-12-10T11:00:06.058Z,10.92
2023-12-10T11:01:04.435Z,11.02
2023-12-10T11:02:04.364Z,11.13
2023-12-10T11:03:04.336Z,11.25
2023-12-10T11:04:04.526Z,11.31
2023-12-10T11:05:04.328Z,11.41
2023-12-10T11:06:06.657Z,11.46
2023-12-10T11:07:04.443Z,11.56
2023-12-10T11:08:04.300Z,11.62
2023-12-10T11:09:04.289Z,11.71
2023-12-10T11:10:04.263Z,11.78
2023-12-10T11:11:04.231Z,11.83
2023-12-10T11:12:04.241Z,11.93
2023-12-10T11:13:04.888Z,11.90
2023-12-10T11:14:04.214Z,11.94
2023-12-10T11:15:04.208Z,11.96
2023-12-10T11:16:04.212Z,11.99
2023-12-10T11:17:04.161Z,11.99
2023-12-10T11:18:04.400Z,11.99
2023-12-10T11:19:04.327Z,12.04
2023-12-10T11:20:04.123Z,12.02
2023-12-10T11:21:04.092Z,12.02
2023-12-10T11:22:04.177Z,12.08
2023-12-10T11:23:04.073Z,12.11
2023-12-10T11:24:04.052Z,12.19
2023-12-10T11:25:04.058Z,12.30
2023-12-10T11:26:04.017Z,12.42
2023-12-10T11:27:04.057Z,12.45
2023-12-10T11:28:04.060Z,12.51
2023-12-10T11:29:04.000Z,12.60
2023-12-10T11:30:03.961Z,12.66
2023-12-10T11:31:04.052Z,12.78
2023-12-10T11:32:03.972Z,12.92
2023-12-10T11:33:04.721Z,13.04
2023-12-10T11:34:03.941Z,13.14
2023-12-10T11:35:03.967Z,13.20
2023-12-10T11:36:32.814Z,13.30
2023-12-10T11:37:03.975Z,13.47
2023-12-10T11:38:03.965Z,13.74
2023-12-10T11:39:03.950Z,14.02
2023-12-10T11:40:04.070Z,14.07
2023-12-10T11:41:05.448Z,14.29
2023-12-10T11:42:06.772Z,14.54
2023-12-10T11:43:05.022Z,14.67
2023-12-10T11:44:04.031Z,14.80
2023-12-10T11:45:03.797Z,14.80
2023-12-10T11:46:03.763Z,14.72
2023-12-10T11:47:03.755Z,14.61
2023-12-10T11:48:03.859Z,14.53
2023-12-10T11:49:03.816Z,14.43
2023-12-10T11:50:03.711Z,14.31
2023-12-10T11:51:03.748Z,14.21
2023-12-10T11:52:05.412Z,14.25
2023-12-10T11:53:03.733Z,14.29
2023-12-10T11:54:03.652Z,14.35
2023-12-10T11:55:03.736Z,14.31
2023-12-10T11:56:03.654Z,14.43
2023-12-10T11:57:03.669Z,14.52
2023-12-10T11:58:03.658Z,14.42
2023-12-10T11:59:03.593Z,14.52
2023-12-10T12:00:03.601Z,14.39
2023-12-10T12:01:03.748Z,14.39
2023-12-10T12:02:03.580Z,14.21
2023-12-10T12:03:03.586Z,14.09
2023-12-10T12:04:04.037Z,14.14
2023-12-10T12:05:03.847Z,14.39
2023-12-10T12:06:03.944Z,14.64
2023-12-10T12:07:04.630Z,15.09
2023-12-10T12:08:04.054Z,15.92
2023-12-10T12:09:03.875Z,16.44
2023-12-10T12:10:03.820Z,16.38
2023-12-10T12:11:03.955Z,16.23
2023-12-10T12:12:04.002Z,15.96
2023-12-10T12:13:03.493Z,15.97
2023-12-10T12:14:03.413Z,16.06
2023-12-10T12:15:03.460Z,15.99
2023-12-10T12:16:03.381Z,15.76
2023-12-10T12:17:03.352Z,15.70
2023-12-10T12:18:03.700Z,15.57
2023-12-10T12:19:03.390Z,15.43
2023-12-10T12:20:03.345Z,15.26
2023-12-10T12:21:03.365Z,15.03
2023-12-10T12:22:03.402Z,14.91
2023-12-10T12:23:03.366Z,14.67
2023-12-10T12:24:03.313Z,14.64
2023-12-10T12:25:03.347Z,14.74
2023-12-10T12:26:03.239Z,14.64
2023-12-10T12:27:03.263Z,14.80
2023-12-10T12:28:03.339Z,14.71
2023-12-10T12:29:03.251Z,14.52
2023-12-10T12:30:03.266Z,14.38
2023-12-10T12:31:03.345Z,14.31
2023-12-10T12:32:19.236Z,14.14
2023-12-10T12:33:03.206Z,14.09
2023-12-10T12:34:03.299Z,14.01
2023-12-10T12:35:03.176Z,13.91
2023-12-10T12:36:03.129Z,13.80
2023-12-10T12:37:03.202Z,13.71
2023-12-10T12:38:03.063Z,13.63
2023-12-10T12:39:03.123Z,13.51
2023-12-10T12:40:04.825Z,13.40
2023-12-10T12:41:03.050Z,13.29
2023-12-10T12:42:03.028Z,13.29
2023-12-10T12:43:03.114Z,13.37
2023-12-10T12:44:03.070Z,13.33
2023-12-10T12:45:03.004Z,13.24
2023-12-10T12:46:03.053Z,13.18
2023-12-10T12:47:02.990Z,13.12
2023-12-10T12:48:02.986Z,13.11
2023-12-10T12:49:03.069Z,13.09
2023-12-10T12:50:03.050Z,13.09
2023-12-10T12:51:02.920Z,13.17
2023-12-10T12:52:02.937Z,13.27
2023-12-10T12:53:02.919Z,13.32
2023-12-10T12:54:12.238Z,13.36
2023-12-10T12:55:02.966Z,13.38
2023-12-10T12:56:02.854Z,13.33
2023-12-10T12:57:02.839Z,13.24
2023-12-10T12:58:02.905Z,13.09
2023-12-10T12:59:02.840Z,13.00
2023-12-10T13:00:02.844Z,12.96
2023-12-10T13:01:03.651Z,13.02
2023-12-10T13:02:02.752Z,12.92
2023-12-10T13:03:02.769Z,12.78
2023-12-10T13:04:04.426Z,12.63
2023-12-10T13:05:02.853Z,12.52
2023-12-10T13:06:03.558Z,12.51
2023-12-10T13:07:03.621Z,12.49
2023-12-10T13:08:02.880Z,12.46
2023-12-10T13:09:02.720Z,12.41
2023-12-10T13:10:03.930Z,12.39
2023-12-10T13:11:02.662Z,12.41
2023-12-10T13:12:02.650Z,12.38
2023-12-10T13:13:02.690Z,12.38